createdAt,value
2022-08-11T00:01:54.194Z,102468.31
2022-08-11T00:04:24.359Z,102461.38
2022-08-11T00:06:52.226Z,102467.50
2022-08-11T00:09:31.459Z,102466.63
2022-08-11T00:11:59.171Z,102469.25
2022-08-11T00:14:37.056Z,102476.28
2022-08-11T00:17:11.757Z,102460.56
2022-08-11T00:20:12.076Z,102471.13
2022-08-11T00:22:29.970Z,102464.94
2022-08-11T00:25:01.750Z,102471.13
2022-08-11T00:27:36.525Z,102479.00
2022-08-11T00:30:05.545Z,102477.31
2022-08-11T00:32:33.227Z,102472.81
2022-08-11T00:35:52.434Z,102468.53
2022-08-11T00:37:54.799Z,102466.00
2022-08-11T00:40:34.503Z,102477.31
2022-08-11T00:43:37.502Z,102470.28
2022-08-11T00:46:14.099Z,102472.06
2022-08-11T00:49:03.977Z,102472.06
2022-08-11T00:52:05.487Z,102471.25
2022-08-11T00:54:45.008Z,102473.84
2022-08-11T00:57:37.341Z,102482.56
2022-08-11T01:00:26.540Z,102487.91
2022-08-11T01:03:44.149Z,102480.84
2022-08-11T01:06:41.130Z,102471.34
2022-08-11T01:09:35.595Z,102482.66
2022-08-11T01:12:49.727Z,102478.34
2022-08-11T01:15:56.078Z,102479.19
2022-08-11T01:19:03.164Z,102478.34
2022-08-11T01:21:41.377Z,102469.66
2022-08-11T01:24:29.218Z,102471.44
2022-08-11T01:27:25.060Z,102459.25
2022-08-11T01:30:10.160Z,102454.94
2022-08-11T01:33:15.372Z,102461.13
2022-08-11T01:36:16.163Z,102459.34
2022-08-11T01:39:04.050Z,102465.44
2022-08-11T01:42:19.067Z,102460.09
2022-08-11T01:45:22.476Z,102462.81
2022-08-11T01:48:03.434Z,102468.03
2022-08-11T01:50:47.564Z,102457.66
2022-08-11T01:54:05.161Z,102460.28
2022-08-11T01:56:56.980Z,102460.28
2022-08-11T01:59:28.832Z,102468.16
2022-08-11T02:02:44.653Z,102466.44
2022-08-11T02:05:17.314Z,102467.31
2022-08-11T02:07:58.067Z,102463.84
2022-08-11T02:10:50.833Z,102465.53
2022-08-11T02:13:36.546Z,102456.94
2022-08-11T02:16:27.211Z,102460.38
2022-08-11T02:19:39.355Z,102459.56
2022-08-11T02:22:53.995Z,102457.75
2022-08-11T02:25:44.514Z,102450.00
2022-08-11T02:28:23.937Z,102450.81
2022-08-11T02:32:15.645Z,102458.78
2022-08-11T02:34:19.198Z,102456.06
2022-08-11T02:36:56.040Z,102450.09
2022-08-11T02:39:30.012Z,102452.72
2022-08-11T02:42:32.817Z,102451.88
2022-08-11T02:45:11.832Z,102454.50
2022-08-11T02:48:21.986Z,102451.88
2022-08-11T02:51:12.193Z,102449.25
2022-08-11T02:53:54.941Z,102455.44
2022-08-11T02:56:37.521Z,102460.69
2022-08-11T02:59:33.184Z,102448.50
2022-08-11T03:02:16.376Z,102445.03
2022-08-11T03:05:11.839Z,102443.25
2022-08-11T03:07:49.283Z,102442.44
2022-08-11T03:11:12.185Z,102437.28
2022-08-11T03:14:05.136Z,102439.03
2022-08-11T03:16:57.617Z,102434.66
2022-08-11T03:20:07.657Z,102438.13
2022-08-11T03:22:58.829Z,102440.84
2022-08-11T03:25:34.694Z,102439.91
2022-08-11T03:28:14.382Z,102439.91
2022-08-11T03:30:52.982Z,102438.22
2022-08-11T03:33:43.968Z,102439.91
2022-08-11T03:36:28.350Z,102442.63
2022-08-11T03:39:05.875Z,102442.63
2022-08-11T03:42:10.098Z,102439.13
2022-08-11T03:44:36.583Z,102439.13
2022-08-11T03:47:52.263Z,102439.13
2022-08-11T03:50:40.354Z,102435.69
2022-08-11T03:53:32.631Z,102445.34
2022-08-11T03:56:26.194Z,102447.09
2022-08-11T03:59:07.709Z,102441.03
2022-08-11T04:02:03.410Z,102436.72
2022-08-11T04:04:51.779Z,102433.16
2022-08-11T04:07:47.329Z,102428.84
2022-08-11T04:10:34.749Z,102435.06
2022-08-11T04:13:32.964Z,102435.06
2022-08-11T04:16:15.957Z,102429.81
2022-08-11T04:19:08.769Z,102428.03
2022-08-11T04:21:35.053Z,102434.19
2022-08-11T04:24:39.768Z,102438.59
2022-08-11T04:27:32.792Z,102424.66
2022-08-11T04:30:17.586Z,102434.19
2022-08-11T04:33:03.035Z,102418.47
2022-08-11T04:35:50.171Z,102415.13
2022-08-11T04:38:29.584Z,102420.25
2022-08-11T04:41:26.664Z,102422.03
2022-08-11T04:44:36.597Z,102422.03
2022-08-11T04:48:04.667Z,102425.59
2022-08-11T04:51:37.908Z,102421.28
2022-08-11T04:54:37.156Z,102428.22
2022-08-11T04:57:30.136Z,102424.75
2022-08-11T05:00:25.124Z,102415.22
2022-08-11T05:03:16.316Z,102420.47
2022-08-11T05:06:13.511Z,102424.84
2022-08-11T05:08:54.711Z,102416.97
2022-08-11T05:11:39.688Z,102419.59
2022-08-11T05:14:30.771Z,102419.59
2022-08-11T05:17:19.068Z,102419.59
2022-08-11T05:20:05.424Z,102421.28
2022-08-11T05:22:51.929Z,102418.75
2022-08-11T05:26:47.405Z,102416.53
2022-08-11T05:29:20.271Z,102422.16
2022-08-11T05:32:14.766Z,102431.09
2022-08-11T05:34:53.195Z,102428.50
2022-08-11T05:37:34.389Z,102427.19
2022-08-11T05:40:28.542Z,102438.66
2022-08-11T05:43:19.952Z,102443.88
2022-08-11T05:46:16.699Z,102440.03
2022-08-11T05:49:02.562Z,102438.56
2022-08-11T05:52:04.780Z,102442.28
2022-08-11T05:54:51.365Z,102444.03
2022-08-11T05:57:48.316Z,102446.00
2022-08-11T06:00:11.747Z,102450.41
2022-08-11T06:02:43.380Z,102447.03
2022-08-11T06:05:11.559Z,102443.50
2022-08-11T06:07:48.485Z,102446.09
2022-08-11T06:10:27.297Z,102447.78
2022-08-11T06:12:55.895Z,102453.88
2022-08-11T06:15:23.006Z,102452.00
2022-08-11T06:17:51.215Z,102451.06
2022-08-11T06:20:19.488Z,102451.81
2022-08-11T06:22:55.284Z,102449.94
2022-08-11T06:25:23.484Z,102442.94
2022-08-11T06:27:56.369Z,102447.25
2022-08-11T06:30:35.201Z,102442.75
2022-08-11T06:33:04.205Z,102436.41
2022-08-11T06:35:41.257Z,102436.31
2022-08-11T06:38:17.828Z,102438.94
2022-08-11T06:41:22.366Z,102443.44
2022-08-11T06:43:55.918Z,102441.63
2022-08-11T06:46:31.748Z,102439.75
2022-08-11T06:49:02.588Z,102442.31
2022-08-11T06:51:32.310Z,102450.91
2022-08-11T06:54:04.312Z,102433.41
2022-08-11T06:57:27.863Z,102436.91
2022-08-11T07:00:04.299Z,102434.19
2022-08-11T07:02:46.372Z,102434.09
2022-08-11T07:05:24.200Z,102440.94
2022-08-11T07:08:47.044Z,102442.50
2022-08-11T07:11:42.879Z,102430.06
2022-08-11T07:14:31.182Z,102440.34
2022-08-11T07:17:00.950Z,102438.56
2022-08-11T07:19:48.415Z,102444.56
2022-08-11T07:22:34.718Z,102441.00
2022-08-11T07:25:26.951Z,102444.38
2022-08-11T07:28:25.737Z,102449.53
2022-08-11T07:31:09.622Z,102446.81
2022-08-11T07:34:05.806Z,102453.75
2022-08-11T07:36:45.982Z,102450.16
2022-08-11T07:39:20.973Z,102445.78
2022-08-11T07:41:49.016Z,102439.59
2022-08-11T07:44:17.097Z,102446.44
2022-08-11T07:47:05.660Z,102439.34
2022-08-11T07:49:54.544Z,102440.19
2022-08-11T07:52:29.353Z,102445.31
2022-08-11T07:54:58.671Z,102440.91
2022-08-11T07:58:05.568Z,102445.22
2022-08-11T08:00:56.413Z,102435.47
2022-08-11T08:03:54.534Z,102435.34
2022-08-11T08:06:41.084Z,102439.63
2022-08-11T08:09:27.328Z,102435.16
2022-08-11T08:12:12.991Z,102441.97
2022-08-11T08:14:58.072Z,102432.34
2022-08-11T08:17:46.320Z,102435.59
2022-08-11T08:20:45.561Z,102439.81
2022-08-11T08:23:12.734Z,102432.69
2022-08-11T08:25:42.014Z,102441.41
2022-08-11T08:28:20.736Z,102448.25
2022-08-11T08:30:56.065Z,102444.66
2022-08-11T08:33:25.432Z,102438.50
2022-08-11T08:36:14.690Z,102434.09
2022-08-11T08:38:43.078Z,102434.97
2022-08-11T08:41:16.483Z,102438.41
2022-08-11T08:43:48.937Z,102439.25
2022-08-11T08:46:19.293Z,102434.84
2022-08-11T08:48:47.057Z,102435.69
2022-08-11T08:52:01.329Z,102431.38
2022-08-11T08:54:23.170Z,102423.41
2022-08-11T08:56:53.788Z,102423.41
2022-08-11T08:59:22.508Z,102425.94
2022-08-11T09:01:56.985Z,102432.88
2022-08-11T09:04:25.604Z,102424.09
2022-08-11T09:06:53.736Z,102430.16
2022-08-11T09:09:21.745Z,102418.75
2022-08-11T09:11:54.850Z,102427.44
2022-08-11T09:14:49.758Z,102417.06
2022-08-11T09:17:18.864Z,102420.44
2022-08-11T09:19:56.474Z,102416.13
2022-08-11T09:22:42.107Z,102416.03
2022-08-11T09:25:27.427Z,102417.72
2022-08-11T09:27:56.472Z,102415.09
2022-08-11T09:30:28.191Z,102409.00
2022-08-11T09:33:05.764Z,102402.00
2022-08-11T09:35:36.670Z,102397.56
2022-08-11T09:38:25.150Z,102395.88
2022-08-11T09:40:56.128Z,102393.25
2022-08-11T09:43:43.592Z,102394.22
2022-08-11T09:46:10.606Z,102397.69
2022-08-11T09:48:44.431Z,102390.66
2022-08-11T09:51:11.932Z,102391.41
2022-08-11T09:53:41.787Z,102390.44
2022-08-11T09:56:35.808Z,102385.19
2022-08-11T09:59:04.333Z,102383.34
2022-08-11T10:01:34.412Z,102390.34
2022-08-11T10:04:06.355Z,102393.72
2022-08-11T10:06:55.501Z,102392.81
2022-08-11T10:09:24.206Z,102385.88
2022-08-11T10:11:57.964Z,102391.94
2022-08-11T10:14:45.261Z,102387.56
2022-08-11T10:17:15.016Z,102384.84
2022-08-11T10:19:43.371Z,102375.19
2022-08-11T10:22:39.354Z,102382.94
2022-08-11T10:25:24.889Z,102374.34
2022-08-11T10:28:17.534Z,102374.34
2022-08-11T10:31:05.687Z,102368.25
2022-08-11T10:33:59.101Z,102363.88
2022-08-11T10:36:28.502Z,102370.88
2022-08-11T10:38:57.654Z,102362.06
2022-08-11T10:42:08.619Z,102360.28
2022-08-11T10:44:50.416Z,102357.66
2022-08-11T10:47:35.655Z,102362.91
2022-08-11T10:50:32.056Z,102360.09
2022-08-11T10:53:19.040Z,102348.66
2022-08-11T10:56:05.705Z,102346.03
2022-08-11T10:58:50.934Z,102344.28
2022-08-11T11:01:31.636Z,102344.28
2022-08-11T11:04:04.606Z,102336.50
2022-08-11T11:06:44.616Z,102346.03
2022-08-11T11:09:25.579Z,102334.63
2022-08-11T11:12:14.856Z,102334.63
2022-08-11T11:15:02.410Z,102332.63
2022-08-11T11:18:01.689Z,102330.78
2022-08-11T11:20:37.997Z,102331.59
2022-08-11T11:23:16.705Z,102331.59
2022-08-11T11:26:10.427Z,102327.19
2022-08-11T11:28:42.831Z,102318.50
2022-08-11T11:31:47.256Z,102328.16
2022-08-11T11:34:53.125Z,102325.41
2022-08-11T11:37:23.529Z,102329.72
2022-08-11T11:39:50.536Z,102322.59
2022-08-11T11:42:18.503Z,102314.72
2022-08-11T11:44:46.897Z,102319.03
2022-08-11T11:47:14.440Z,102315.47
2022-08-11T11:49:43.976Z,102310.22
2022-08-11T11:52:20.120Z,102312.72
2022-08-11T11:54:50.119Z,102317.16
2022-08-11T11:57:36.611Z,102302.25
2022-08-11T12:00:33.363Z,102310.00
2022-08-11T12:03:02.684Z,102299.44
2022-08-11T12:05:33.516Z,102298.59
2022-08-11T12:08:17.811Z,102302.91
2022-08-11T12:10:50.705Z,102295.13
2022-08-11T12:13:37.403Z,102282.03
2022-08-11T12:16:31.743Z,102286.34
2022-08-11T12:18:54.416Z,102282.03
2022-08-11T12:21:21.523Z,102283.72
2022-08-11T12:24:07.465Z,102276.69
2022-08-11T12:27:15.119Z,102270.59
2022-08-11T12:29:36.057Z,102263.66
2022-08-11T12:32:07.365Z,102277.59
2022-08-11T12:34:33.828Z,102265.34
2022-08-11T12:37:05.456Z,102265.34
2022-08-11T12:40:16.434Z,102261.06
2022-08-11T12:43:03.964Z,102258.31
2022-08-11T12:45:37.176Z,102261.88
2022-08-11T12:48:57.810Z,102253.91
2022-08-11T12:52:12.484Z,102247.00
2022-08-11T12:54:49.843Z,102246.16
2022-08-11T12:57:43.986Z,102247.84
2022-08-11T13:00:29.221Z,102240.06
2022-08-11T13:03:14.843Z,102238.28
2022-08-11T13:05:44.993Z,102249.63
2022-08-11T13:08:14.302Z,102235.56
2022-08-11T13:10:59.731Z,102241.66
2022-08-11T13:13:55.922Z,102233.78
2022-08-11T13:16:14.986Z,102232.94
2022-08-11T13:18:42.873Z,102227.69
2022-08-11T13:21:20.561Z,102229.47
2022-08-11T13:24:00.318Z,102219.81
2022-08-11T13:26:43.423Z,102222.44
2022-08-11T13:29:19.911Z,102213.75
2022-08-11T13:31:47.599Z,102222.44
2022-08-11T13:34:16.316Z,102215.44
2022-08-11T13:36:43.595Z,102214.56
2022-08-11T13:39:10.893Z,102218.88
2022-08-11T13:41:39.215Z,102201.56
2022-08-11T13:44:09.036Z,102206.00
2022-08-11T13:46:36.787Z,102204.19
2022-08-11T13:49:04.598Z,102205.06
2022-08-11T13:51:35.432Z,102212.81
2022-08-11T13:54:08.798Z,102197.91
2022-08-11T13:56:40.588Z,102192.78
2022-08-11T13:59:08.780Z,102199.69
2022-08-11T14:02:20.645Z,102194.47
2022-08-11T14:04:32.400Z,102195.41
2022-08-11T14:07:02.999Z,102199.69
2022-08-11T14:09:34.817Z,102197.91
2022-08-11T14:12:25.813Z,102197.09
2022-08-11T14:15:08.428Z,102184.81
2022-08-11T14:17:48.731Z,102179.56
2022-08-11T14:20:38.005Z,102182.19
2022-08-11T14:23:05.594Z,102187.31
2022-08-11T14:26:00.929Z,102174.22
2022-08-11T14:28:34.001Z,102181.25
2022-08-11T14:31:05.254Z,102178.63
2022-08-11T14:33:53.575Z,102178.63
2022-08-11T14:36:23.053Z,102171.59
2022-08-11T14:38:50.666Z,102175.88
2022-08-11T14:41:37.418Z,102164.53
2022-08-11T14:44:44.320Z,102170.66
2022-08-11T14:47:24.099Z,102162.78
2022-08-11T14:50:09.335Z,102159.31
2022-08-11T14:52:43.176Z,102155.75
2022-08-11T14:55:29.443Z,102155.75
2022-08-11T14:58:04.577Z,102153.13
2022-08-11T15:00:34.237Z,102153.13
2022-08-11T15:03:12.049Z,102146.09
2022-08-11T15:05:57.281Z,102146.72
2022-08-11T15:08:46.748Z,102151.03
2022-08-11T15:11:33.552Z,102143.16
2022-08-11T15:14:02.190Z,102135.19
2022-08-11T15:16:48.263Z,102138.84
2022-08-11T15:19:16.359Z,102133.63
2022-08-11T15:22:01.276Z,102141.59
2022-08-11T15:24:27.936Z,102139.78
2022-08-11T15:27:19.407Z,102134.44
2022-08-11T15:30:06.666Z,102128.25
2022-08-11T15:32:54.063Z,102129.94
2022-08-11T15:35:39.864Z,102128.97
2022-08-11T15:38:11.496Z,102121.09
2022-08-11T15:40:58.811Z,102128.78
2022-08-11T15:43:49.795Z,102122.59
2022-08-11T15:46:25.700Z,102116.44
2022-08-11T15:48:59.303Z,102117.38
2022-08-11T15:51:35.832Z,102116.44
2022-08-11T15:54:12.931Z,102111.06
2022-08-11T15:56:42.642Z,102111.91
2022-08-11T15:59:41.754Z,102109.28
2022-08-11T16:02:32.099Z,102110.97
2022-08-11T16:05:01.949Z,102108.13
2022-08-11T16:07:32.520Z,102102.66
2022-08-11T16:10:09.428Z,102104.34
2022-08-11T16:13:06.742Z,102093.03
2022-08-11T16:15:58.323Z,102100.88
2022-08-11T16:18:40.674Z,102096.69
2022-08-11T16:21:34.095Z,102089.66
2022-08-11T16:24:01.783Z,102102.66
2022-08-11T16:27:08.628Z,102090.41
2022-08-11T16:29:18.118Z,102085.97
2022-08-11T16:32:06.438Z,102079.91
2022-08-11T16:34:52.997Z,102089.53
2022-08-11T16:37:42.004Z,102094.78
2022-08-11T16:40:10.354Z,102088.59
2022-08-11T16:43:05.183Z,102085.16
2022-08-11T16:45:58.681Z,102086.91
2022-08-11T16:48:35.621Z,102088.59
2022-08-11T16:51:08.140Z,102087.66
2022-08-11T16:54:04.112Z,102081.56
2022-08-11T16:56:32.272Z,102088.50
2022-08-11T16:59:14.936Z,102080.63
2022-08-11T17:01:52.898Z,102083.13
2022-08-11T17:04:56.531Z,102082.19
2022-08-11T17:07:43.457Z,102088.28
2022-08-11T17:10:50.539Z,102081.97
2022-08-11T17:13:23.670Z,102084.47
2022-08-11T17:16:06.799Z,102084.47
2022-08-11T17:18:45.351Z,102086.16
2022-08-11T17:21:21.460Z,102075.78
2022-08-11T17:23:54.715Z,102078.31
2022-08-11T17:26:26.924Z,102080.19
2022-08-11T17:28:58.004Z,102080.91
2022-08-11T17:31:45.625Z,102076.63
2022-08-11T17:34:32.405Z,102074.00
2022-08-11T17:37:00.137Z,102071.25
2022-08-11T17:39:30.680Z,102070.44
2022-08-11T17:42:17.775Z,102080.91
2022-08-11T17:45:03.846Z,102075.69
2022-08-11T17:47:50.132Z,102079.13
2022-08-11T17:50:18.238Z,102080.06
2022-08-11T17:53:04.968Z,102087.81
2022-08-11T17:55:53.583Z,102076.50
2022-08-11T17:58:40.205Z,102080.81
2022-08-11T18:01:09.529Z,102085.09
2022-08-11T18:03:39.939Z,102087.00
2022-08-11T18:06:12.531Z,102090.34
2022-08-11T18:09:02.155Z,102086.16
2022-08-11T18:12:10.858Z,102085.31
2022-08-11T18:14:56.785Z,102089.72
2022-08-11T18:17:41.990Z,102090.56
2022-08-11T18:20:27.705Z,102088.91
2022-08-11T18:23:14.530Z,102090.78
2022-08-11T18:26:03.488Z,102095.19
2022-08-11T18:29:02.688Z,102094.44
2022-08-11T18:31:52.519Z,102094.44
2022-08-11T18:34:43.265Z,102096.25
2022-08-11T18:37:46.678Z,102099.81
2022-08-11T18:40:42.642Z,102109.47
2022-08-11T18:43:29.923Z,102099.81
2022-08-11T18:46:23.345Z,102111.28
2022-08-11T18:49:16.339Z,102118.28
2022-08-11T18:52:06.420Z,102112.09
2022-08-11T18:54:55.467Z,102115.66
2022-08-11T18:57:49.541Z,102116.53
2022-08-11T19:00:39.667Z,102117.34
2022-08-11T19:03:26.136Z,102119.03
2022-08-11T19:06:39.105Z,102121.53
2022-08-11T19:09:19.965Z,102128.56
2022-08-11T19:12:06.806Z,102132.88
2022-08-11T19:14:54.065Z,102136.31
2022-08-11T19:17:45.315Z,102140.72
2022-08-11T19:20:38.542Z,102136.31
2022-08-11T19:23:27.202Z,102140.63
2022-08-11T19:26:13.008Z,102140.63
2022-08-11T19:29:02.572Z,102144.00
2022-08-11T19:31:48.707Z,102144.00
2022-08-11T19:34:39.641Z,102134.44
2022-08-11T19:37:27.388Z,102146.72
2022-08-11T19:40:16.335Z,102152.81
2022-08-11T19:43:03.192Z,102144.09
2022-08-11T19:45:52.746Z,102151.13
2022-08-11T19:48:40.782Z,102154.69
2022-08-11T19:51:28.578Z,102155.53
2022-08-11T19:54:15.079Z,102153.75
2022-08-11T19:57:00.943Z,102155.44
2022-08-11T19:59:46.780Z,102151.00
2022-08-11T20:02:31.620Z,102160.69
2022-08-11T20:05:16.702Z,102158.06
2022-08-11T20:08:04.010Z,102158.06
2022-08-11T20:10:52.802Z,102156.25
2022-08-11T20:13:43.423Z,102158.88
2022-08-11T20:16:31.154Z,102158.88
2022-08-11T20:19:16.617Z,102156.25
2022-08-11T20:22:07.949Z,102156.16
2022-08-11T20:24:56.719Z,102159.63
2022-08-11T20:27:42.472Z,102162.16
2022-08-11T20:30:27.856Z,102161.28
2022-08-11T20:33:12.460Z,102167.38
2022-08-11T20:35:58.187Z,102169.03
2022-08-11T20:38:47.020Z,102162.34
2022-08-11T20:41:32.622Z,102165.91
2022-08-11T20:44:39.157Z,102169.47
2022-08-11T20:47:26.338Z,102166.13
2022-08-11T20:50:17.801Z,102171.38
2022-08-11T20:53:05.981Z,102163.63
2022-08-11T20:55:53.524Z,102175.06
2022-08-11T21:01:46.138Z,102179.59
2022-08-11T21:04:32.638Z,102183.03
2022-08-11T21:07:28.749Z,102183.97
2022-08-11T21:10:23.735Z,102183.97
2022-08-11T21:13:26.159Z,102183.97
2022-08-11T21:16:25.491Z,102184.94
2022-08-11T21:19:15.672Z,102184.94
2022-08-11T21:22:03.570Z,102183.25
2022-08-11T21:24:51.218Z,102178.00
2022-08-11T21:27:39.462Z,102182.38
2022-08-11T21:30:25.355Z,102178.13
2022-08-11T21:33:11.697Z,102185.00
2022-08-11T21:35:57.021Z,102180.75
2022-08-11T21:38:43.325Z,102174.63
2022-08-11T21:41:30.023Z,102178.13
2022-08-11T21:44:16.249Z,102173.81
2022-08-11T21:47:02.124Z,102182.50
2022-08-11T21:49:50.378Z,102176.44
2022-08-11T21:52:35.686Z,102174.75
2022-08-11T21:55:21.464Z,102173.81
2022-08-11T21:58:07.190Z,102170.34
2022-08-11T22:00:53.056Z,102168.56
2022-08-11T22:03:49.358Z,102168.66
2022-08-11T22:06:35.833Z,102168.66
2022-08-11T22:09:20.446Z,102166.03
2022-08-11T22:12:34.017Z,102156.50
2022-08-11T22:15:11.212Z,102164.25
2022-08-11T22:17:58.044Z,102166.97
2022-08-11T22:20:44.832Z,102166.97
2022-08-11T22:23:35.240Z,102164.34
2022-08-11T22:26:22.412Z,102160.06
2022-08-11T22:29:07.574Z,102158.28
2022-08-11T22:31:54.831Z,102160.06
2022-08-11T22:34:52.730Z,102151.34
2022-08-11T22:37:40.204Z,102161.72
2022-08-11T22:40:27.627Z,102161.00
2022-08-11T22:43:12.383Z,102159.22
2022-08-11T22:45:57.603Z,102163.63
2022-08-11T22:48:46.883Z,102166.25
2022-08-11T22:51:33.651Z,102155.78
2022-08-11T22:54:22.911Z,102165.44
2022-08-11T22:57:09.243Z,102164.56
2022-08-11T22:59:55.996Z,102155.88
2022-08-11T23:02:41.727Z,102159.31
2022-08-11T23:05:27.421Z,102160.25
2022-08-11T23:08:14.639Z,102158.50
2022-08-11T23:11:00.274Z,102169.00
2022-08-11T23:13:47.640Z,102174.22
2022-08-11T23:16:33.403Z,102165.50
2022-08-11T23:20:08.657Z,102170.88
2022-08-11T23:22:24.412Z,102175.16
2022-08-11T23:25:29.186Z,102180.41
2022-08-11T23:28:17.029Z,102175.16
2022-08-11T23:31:02.729Z,102176.09
2022-08-11T23:33:50.233Z,102183.97
2022-08-11T23:36:46.748Z,102175.28
2022-08-11T23:39:32.863Z,102174.44
2022-08-11T23:42:17.664Z,102170.88
2022-08-11T23:45:02.370Z,102177.91
2022-08-11T23:47:51.122Z,102177.06
2022-08-11T23:50:37.007Z,102170.03
2022-08-11T23:53:22.239Z,102173.56
2022-08-11T23:56:07.621Z,102162.25
2022-08-11T23:58:53.418Z,102165.69
